Time,TemperatureF,DewpointF,PressureIn,WindDirection,WindDirectionDegrees,WindSpeedMPH,WindSpeedGustMPH,Humidity,HourlyPrecipIn,Conditions,Clouds,dailyrainin,SoftwareType,DateUTC
2013-08-04 00:13:00,54.5,52.0,29.98,South,169,0.0,-999.0,92,-99.99,,,0.00,weatherlink.com 1.10,2013-08-04 07:13:00,
2013-08-04 00:28:00,54.5,52.0,29.98,SW,217,0.0,-999.0,92,-99.99,,,0.00,weatherlink.com 1.10,2013-08-04 07:28:00,
2013-08-04 00:43:00,54.5,52.0,29.98,WSW,249,0.0,-999.0,92,-99.99,,,0.00,weatherlink.com 1.10,2013-08-04 07:43:00,
2013-08-04 00:58:00,54.7,53.0,29.97,SW,226,1.0,-999.0,92,-99.99,,,0.00,weatherlink.com 1.10,2013-08-04 07:58:00,
2013-08-04 01:13:00,54.7,53.0,29.98,South,178,2.0,-999.0,92,-99.99,,,0.00,weatherlink.com 1.10,2013-08-04 08:13:00,
2013-08-04 01:28:00,54.5,52.0,29.98,South,171,0.0,-999.0,92,-99.99,,,0.00,weatherlink.com 1.10,2013-08-04 08:28:00,
2013-08-04 01:43:00,54.4,52.0,29.97,WSW,238,0.0,-999.0,92,-99.99,,,0.00,weatherlink.com 1.10,2013-08-04 08:43:00,
2013-08-04 01:58:00,54.4,52.0,29.97,South,177,1.0,-999.0,92,-99.99,,,0.00,weatherlink.com 1.10,2013-08-04 08:58:00,
2013-08-04 02:14:00,54.7,53.0,29.98,SE,144,0.0,-999.0,92,-99.99,,,0.00,weatherlink.com 1.10,2013-08-04 09:14:00,
2013-08-04 02:29:00,54.8,53.0,29.97,South,175,0.0,-999.0,92,-99.99,,,0.00,weatherlink.com 1.10,2013-08-04 09:29:00,
2013-08-04 02:43:00,54.7,53.0,29.97,WSW,238,1.0,-999.0,92,-99.99,,,0.00,weatherlink.com 1.10,2013-08-04 09:43:00,
2013-08-04 02:59:00,54.7,53.0,29.97,ESE,104,0.0,-999.0,92,-99.99,,,0.00,weatherlink.com 1.10,2013-08-04 09:59:00,
2013-08-04 03:14:00,54.5,52.0,29.97,West,265,0.0,-999.0,92,-99.99,,,0.00,weatherlink.com 1.10,2013-08-04 10:14:00,
2013-08-04 03:29:00,54.4,52.0,29.97,WSW,253,3.0,-999.0,92,-99.99,,,0.00,weatherlink.com 1.10,2013-08-04 10:29:00,
2013-08-04 03:44:00,54.4,52.0,29.97,SW,227,0.0,-999.0,92,-99.99,,,0.00,weatherlink.com 1.10,2013-08-04 10:44:00,
2013-08-04 03:59:00,54.4,52.0,29.96,SW,226,1.0,-999.0,92,-99.99,,,0.00,weatherlink.com 1.10,2013-08-04 10:59:00,
2013-08-04 04:14:00,54.5,52.0,29.97,SE,132,1.0,-999.0,92,-99.99,,,0.00,weatherlink.com 1.10,2013-08-04 11:14:00,
2013-08-04 04:29:00,54.5,52.0,29.97,SSW,201,0.0,-999.0,92,-99.99,,,0.00,weatherlink.com 1.10,2013-08-04 11:29:00,
2013-08-04 04:44:00,54.5,52.0,29.98,WSW,238,0.0,-999.0,92,-99.99,,,0.00,weatherlink.com 1.10,2013-08-04 11:44:00,
2013-08-04 04:59:00,54.4,52.0,29.98,SW,223,0.0,-999.0,92,-99.99,,,0.00,weatherlink.com 1.10,2013-08-04 11:59:00,
2013-08-04 05:14:00,54.5,52.0,29.98,SSW,213,0.0,-999.0,92,-99.99,,,0.00,weatherlink.com 1.10,2013-08-04 12:14:00,
2013-08-04 05:29:00,54.5,52.0,29.98,WSW,245,0.0,-999.0,92,-99.99,,,0.00,weatherlink.com 1.10,2013-08-04 12:29:00,
2013-08-04 05:44:00,54.5,52.0,29.98,West,276,0.0,-999.0,92,-99.99,,,0.00,weatherlink.com 1.10,2013-08-04 12:44:00,
2013-08-04 05:58:00,54.5,52.0,29.98,SE,144,0.0,-999.0,92,-99.99,,,0.00,weatherlink.com 1.10,2013-08-04 12:58:00,
2013-08-04 06:14:00,54.5,52.0,29.98,SW,229,2.0,-999.0,92,-99.99,,,0.00,weatherlink.com 1.10,2013-08-04 13:14:00,
2013-08-04 06:29:00,54.5,52.0,29.98,SW,224,0.0,-999.0,92,-99.99,,,0.00,weatherlink.com 1.10,2013-08-04 13:29:00,
2013-08-04 06:44:00,54.5,52.0,29.99,SSW,193,0.0,-999.0,92,-99.99,,,0.00,weatherlink.com 1.10,2013-08-04 13:44:00,
2013-08-04 06:59:00,54.7,53.0,29.98,SSW,209,1.0,-999.0,92,-99.99,,,0.00,weatherlink.com 1.10,2013-08-04 13:59:00,
2013-08-04 07:14:00,54.7,53.0,29.99,SW,218,0.0,-999.0,92,-99.99,,,0.00,weatherlink.com 1.10,2013-08-04 14:14:00,
2013-08-04 07:29:00,54.5,52.0,29.99,SSE,147,2.0,-999.0,91,-99.99,,,0.00,weatherlink.com 1.10,2013-08-04 14:29:00,
2013-08-04 07:44:00,54.5,52.0,29.99,SW,214,0.0,-999.0,91,-99.99,,,0.00,weatherlink.com 1.10,2013-08-04 14:44:00,
2013-08-04 07:59:00,54.7,52.0,29.99,SSW,212,0.0,-999.0,91,-99.99,,,0.00,weatherlink.com 1.10,2013-08-04 14:59:00,
2013-08-04 08:14:00,55.0,52.0,29.99,West,274,3.0,-999.0,90,-99.99,,,0.00,weatherlink.com 1.10,2013-08-04 15:14:00,
2013-08-04 08:29:00,55.1,52.0,30.00,South,172,1.0,-999.0,90,-99.99,,,0.00,weatherlink.com 1.10,2013-08-04 15:29:00,
2013-08-04 08:44:00,55.4,53.0,30.00,SSE,162,0.0,-999.0,90,-99.99,,,0.00,weatherlink.com 1.10,2013-08-04 15:44:00,
2013-08-04 08:59:00,55.6,53.0,30.00,South,190,0.0,-999.0,89,-99.99,,,0.00,weatherlink.com 1.10,2013-08-04 15:59:00,
2013-08-04 09:14:00,56.0,53.0,30.00,SE,134,0.0,-999.0,88,-99.99,,,0.00,weatherlink.com 1.10,2013-08-04 16:14:00,
2013-08-04 09:29:00,56.2,52.0,30.00,SW,220,0.0,-999.0,87,-99.99,,,0.00,weatherlink.com 1.10,2013-08-04 16:29:00,
2013-08-04 09:44:00,56.5,53.0,30.00,West,269,0.0,-999.0,87,-99.99,,,0.00,weatherlink.com 1.10,2013-08-04 16:44:00,
2013-08-04 09:59:00,56.9,53.0,30.00,WSW,238,0.0,-999.0,86,-99.99,,,0.00,weatherlink.com 1.10,2013-08-04 16:59:00,
2013-08-04 10:14:00,57.2,52.0,30.00,SSW,209,0.0,-999.0,84,-99.99,,,0.00,weatherlink.com 1.10,2013-08-04 17:14:00,
2013-08-04 10:29:00,58.0,53.0,30.00,WSW,246,0.0,-999.0,83,-99.99,,,0.00,weatherlink.com 1.10,2013-08-04 17:29:00,
2013-08-04 10:44:00,58.6,53.0,30.00,West,261,0.0,-999.0,81,-99.99,,,0.00,weatherlink.com 1.10,2013-08-04 17:44:00,
2013-08-04 10:59:00,59.2,53.0,30.01,South,180,0.0,-999.0,80,-99.99,,,0.00,weatherlink.com 1.10,2013-08-04 17:59:00,
2013-08-04 11:14:00,59.8,53.0,30.01,West,263,1.0,-999.0,78,-99.99,,,0.00,weatherlink.com 1.10,2013-08-04 18:14:00,
2013-08-04 11:29:00,59.6,53.0,30.01,West,266,2.0,-999.0,78,-99.99,,,0.00,weatherlink.com 1.10,2013-08-04 18:29:00,
2013-08-04 11:44:00,58.9,53.0,30.01,WNW,296,0.0,-999.0,80,-99.99,,,0.00,weatherlink.com 1.10,2013-08-04 18:44:00,
2013-08-04 11:59:00,59.6,53.0,30.01,SW,231,0.0,-999.0,78,-99.99,,,0.00,weatherlink.com 1.10,2013-08-04 18:59:00,
2013-08-04 12:14:00,60.7,52.0,30.01,SW,225,0.0,-999.0,74,-99.99,,,0.00,weatherlink.com 1.10,2013-08-04 19:14:00,
2013-08-04 12:29:00,61.3,53.0,30.01,SW,234,0.0,-999.0,74,-99.99,,,0.00,weatherlink.com 1.10,2013-08-04 19:29:00,
2013-08-04 12:44:00,62.9,53.0,30.01,SSW,213,0.0,-999.0,69,-99.99,,,0.00,weatherlink.com 1.10,2013-08-04 19:44:00,
2013-08-04 12:59:00,63.7,53.0,30.01,WSW,241,0.0,-999.0,68,-99.99,,,0.00,weatherlink.com 1.10,2013-08-04 19:59:00,
2013-08-04 13:14:00,64.7,53.0,30.00,SW,236,0.0,-999.0,67,-99.99,,,0.00,weatherlink.com 1.10,2013-08-04 20:14:00,
2013-08-04 13:29:00,66.1,53.0,30.00,ESE,116,0.0,-999.0,64,-99.99,,,0.00,weatherlink.com 1.10,2013-08-04 20:29:00,
2013-08-04 13:44:00,66.1,53.0,30.00,WSW,237,0.0,-999.0,63,-99.99,,,0.00,weatherlink.com 1.10,2013-08-04 20:44:00,
2013-08-04 13:59:00,65.8,54.0,30.00,SSE,164,0.0,-999.0,66,-99.99,,,0.00,weatherlink.com 1.10,2013-08-04 20:59:00,
2013-08-04 14:14:00,66.4,53.0,30.00,NW,319,1.0,-999.0,63,-99.99,,,0.00,weatherlink.com 1.10,2013-08-04 21:14:00,
2013-08-04 14:29:00,65.6,53.0,30.00,West,281,4.0,-999.0,64,-99.99,,,0.00,weatherlink.com 1.10,2013-08-04 21:29:00,
2013-08-04 14:44:00,64.7,53.0,30.00,West,277,6.0,-999.0,66,-99.99,,,0.00,weatherlink.com 1.10,2013-08-04 21:44:00,
2013-08-04 14:59:00,64.7,53.0,29.99,WSW,237,3.0,-999.0,65,-99.99,,,0.00,weatherlink.com 1.10,2013-08-04 21:59:00,
2013-08-04 15:14:00,64.8,53.0,29.99,WSW,257,0.0,-999.0,65,-99.99,,,0.00,weatherlink.com 1.10,2013-08-04 22:14:00,
2013-08-04 15:29:00,65.8,53.0,29.98,South,171,1.0,-999.0,64,-99.99,,,0.00,weatherlink.com 1.10,2013-08-04 22:29:00,
2013-08-04 15:44:00,64.8,53.0,29.99,WSW,245,0.0,-999.0,66,-99.99,,,0.00,weatherlink.com 1.10,2013-08-04 22:44:00,
2013-08-04 15:59:00,65.0,52.0,29.98,North,360,0.0,-999.0,64,-99.99,,,0.00,weatherlink.com 1.10,2013-08-04 22:59:00,
2013-08-04 16:15:00,64.3,52.0,29.98,WSW,252,0.0,-999.0,65,-99.99,,,0.00,weatherlink.com 1.10,2013-08-04 23:15:00,
2013-08-04 16:30:00,63.7,52.0,29.98,SSW,207,0.0,-999.0,66,-99.99,,,0.00,weatherlink.com 1.10,2013-08-04 23:30:00,
2013-08-04 16:45:00,64.2,53.0,29.98,WSW,248,2.0,-999.0,66,-99.99,,,0.00,weatherlink.com 1.10,2013-08-04 23:45:00,
2013-08-04 17:00:00,64.3,53.0,29.98,SSW,205,1.0,-999.0,67,-99.99,,,0.00,weatherlink.com 1.10,2013-08-05 00:00:00,
2013-08-04 17:15:00,63.9,53.0,29.98,SW,232,2.0,-999.0,67,-99.99,,,0.00,weatherlink.com 1.10,2013-08-05 00:15:00,
2013-08-04 17:30:00,62.6,53.0,29.98,NW,313,0.0,-999.0,70,-99.99,,,0.00,weatherlink.com 1.10,2013-08-05 00:30:00,
2013-08-04 17:45:00,62.0,52.0,29.98,WSW,246,2.0,-999.0,71,-99.99,,,0.00,weatherlink.com 1.10,2013-08-05 00:45:00,
2013-08-04 18:00:00,60.4,52.0,29.98,West,272,1.0,-999.0,73,-99.99,,,0.00,weatherlink.com 1.10,2013-08-05 01:00:00,
2013-08-04 18:15:00,59.3,52.0,29.98,West,275,1.0,-999.0,77,-99.99,,,0.00,weatherlink.com 1.10,2013-08-05 01:15:00,
2013-08-04 18:30:00,58.9,52.0,29.98,West,265,3.0,-999.0,78,-99.99,,,0.00,weatherlink.com 1.10,2013-08-05 01:30:00,
2013-08-04 18:45:00,58.4,53.0,29.98,South,175,5.0,-999.0,81,-99.99,,,0.00,weatherlink.com 1.10,2013-08-05 01:45:00,
2013-08-04 19:00:00,58.4,53.0,29.98,WSW,237,0.0,-999.0,82,-99.99,,,0.00,weatherlink.com 1.10,2013-08-05 02:00:00,
2013-08-04 19:15:00,58.6,53.0,29.98,SSW,203,1.0,-999.0,82,-99.99,,,0.00,weatherlink.com 1.10,2013-08-05 02:15:00,
2013-08-04 19:30:00,58.7,54.0,29.98,West,261,0.0,-999.0,83,-99.99,,,0.00,weatherlink.com 1.10,2013-08-05 02:30:00,
2013-08-04 19:45:00,58.7,54.0,29.98,SE,143,1.0,-999.0,83,-99.99,,,0.00,weatherlink.com 1.10,2013-08-05 02:45:00,
2013-08-04 20:00:00,58.6,54.0,29.98,West,260,0.0,-999.0,84,-99.99,,,0.00,weatherlink.com 1.10,2013-08-05 03:00:00,
2013-08-04 20:16:00,58.3,54.0,29.98,South,190,0.0,-999.0,84,-99.99,,,0.00,weatherlink.com 1.10,2013-08-05 03:16:00,
2013-08-04 20:45:00,57.8,53.0,29.98,WSW,242,2.0,-999.0,85,-99.99,,,0.00,weatherlink.com 1.10,2013-08-05 03:45:00,
2013-08-04 21:00:00,57.6,54.0,29.99,SSW,195,0.0,-999.0,86,-99.99,,,0.00,weatherlink.com 1.10,2013-08-05 04:00:00,
2013-08-04 21:16:00,57.5,53.0,30.00,SSE,165,1.0,-999.0,86,-99.99,,,0.00,weatherlink.com 1.10,2013-08-05 04:16:00,
2013-08-04 21:31:00,57.5,54.0,30.00,SW,234,0.0,-999.0,87,-99.99,,,0.00,weatherlink.com 1.10,2013-08-05 04:31:00,
2013-08-04 21:46:00,57.2,53.0,30.00,SSW,208,0.0,-999.0,87,-99.99,,,0.00,weatherlink.com 1.10,2013-08-05 04:46:00,
2013-08-04 22:01:00,57.0,53.0,30.01,ESE,114,0.0,-999.0,87,-99.99,,,0.00,weatherlink.com 1.10,2013-08-05 05:01:00,
2013-08-04 22:16:00,57.2,54.0,30.01,WSW,246,0.0,-999.0,88,-99.99,,,0.00,weatherlink.com 1.10,2013-08-05 05:16:00,
2013-08-04 22:31:00,57.2,54.0,30.01,SW,226,0.0,-999.0,88,-99.99,,,0.00,weatherlink.com 1.10,2013-08-05 05:31:00,
2013-08-04 22:46:00,57.0,54.0,30.01,SSE,161,0.0,-999.0,89,-99.99,,,0.00,weatherlink.com 1.10,2013-08-05 05:46:00,
2013-08-04 23:01:00,57.0,54.0,30.01,South,190,0.0,-999.0,89,-99.99,,,0.00,weatherlink.com 1.10,2013-08-05 06:01:00,
2013-08-04 23:16:00,57.0,54.0,30.00,South,169,0.0,-999.0,89,-99.99,,,0.00,weatherlink.com 1.10,2013-08-05 06:16:00,
2013-08-04 23:31:00,56.9,54.0,30.00,WSW,238,0.0,-999.0,89,-99.99,,,0.00,weatherlink.com 1.10,2013-08-05 06:31:00,
2013-08-04 23:46:00,56.6,54.0,30.00,WSW,246,0.0,-999.0,89,-99.99,,,0.00,weatherlink.com 1.10,2013-08-05 06:46:00,